Airfield :
LOGIN :

Register | Disclaimer

   EN    FR    IT 

 










Legend :    VFR   Marginal VFR   IFR   Intensive IFR   Very Intensive IFR
Visi :
Ceiling :
>= 8 km
>= 3000ft
5 to 8 km
1000 to 3000 ft
1500m to 5 km
500 to 1000 ft
800 to 1500m
200 to 500 ft
< 800m
< 200 ft
Symbols :   Thunderstorms  Fog  Heavy snow  Heavy precipitations  Wind > 20 kt
SIGMETs :     Misc.  Thunderstorms  Icing  Turbulence  Mountain Waves  Volcanic Ashes






- Airport Elevation : 512 ft
- IATA code : URO


LFOP - Rouen Vallée de Seine

CURRENT METAR :
  • 110330Z AUTO 26006KT 9999 -RA SCT006 SCT012 BKN029 07/07 Q1011

EXPIRED METARs :
  • 110300Z AUTO 26006KT 9999 -RA OVC004/// ///TCU 08/07 Q1011
  • 110230Z AUTO 26006KT 9999 -DZ BKN006/// BKN011/// BKN025/// ///TCU 08/07 Q1011
  • 110200Z AUTO 26005KT 9999 FEW013/// BKN020/// BKN028/// ///TCU 08/07 Q1011
  • 110130Z AUTO 27006KT 9999 SCT004/// SCT008/// BKN019/// ///TCU 08/07 Q1012
  • 110100Z AUTO 25011KT 5000 -RA BR BKN004 OVC008 08/08 Q1012

TAF TAF LFOP
Valid from the 10 at 18:00 until the 11 at 18:00 UTC


101700Z 1018/1118 18015G25KT 9999 OVC017
TEMPO 1018/1101 18020G30KT 3000 RA OVC010
BECMG 1100/1103 22013KT
TEMPO 1106/1111 OVC010
ATIS : +33 2 35 80 80 34
Met : +33 2 32 86 52 80



MET'MAP, your aeronautical weather chart ! - Copyright ORBIFLY December 2007 - Disclaimer

ORBIFLY MET'MAP TEAM :

Programming & Development : Alexandra Zaïnal
Concept & original design : Baudouin d'Aumeries
Assistance for programming : Marc-Olivier Méhu
Technical & hardware support : Manuel Goepfert

Contact : metmap@orbifly.com




SOURCES & CREDITS :

   NOAA